sensor_id;sensor_type;location;lat;lon;timestamp;pressure;altitude;pressure_sealevel;temperature;humidity
33161;BME280;19522;45.656;11.302;2022-10-31T00:00:52;98929.75;;;13.68;83.81
33161;BME280;19522;45.656;11.302;2022-10-31T00:03:18;98899.13;;;13.44;84.49
33161;BME280;19522;45.656;11.302;2022-10-31T00:05:48;98981.19;;;13.93;84.77
33161;BME280;19522;45.656;11.302;2022-10-31T00:08:15;98820.22;;;12.99;83.90
33161;BME280;19522;45.656;11.302;2022-10-31T00:10:44;98801.91;;;12.71;84.60
33161;BME280;19522;45.656;11.302;2022-10-31T00:13:11;98983.66;;;13.87;84.46
33161;BME280;19522;45.656;11.302;2022-10-31T00:15:40;98978.84;;;13.90;84.33
33161;BME280;19522;45.656;11.302;2022-10-31T00:18:08;98763.66;;;12.43;84.29
33161;BME280;19522;45.656;11.302;2022-10-31T00:20:34;98813.13;;;12.83;84.62
33161;BME280;19522;45.656;11.302;2022-10-31T00:23:00;98973.47;;;13.75;85.22
33161;BME280;19522;45.656;11.302;2022-10-31T00:25:32;98970.16;;;13.79;85.23
33161;BME280;19522;45.656;11.302;2022-10-31T00:27:58;98963.22;;;14.05;84.30
33161;BME280;19522;45.656;11.302;2022-10-31T00:30:23;98970.19;;;14.08;83.50
33161;BME280;19522;45.656;11.302;2022-10-31T00:32:49;98967.63;;;14.06;83.18
33161;BME280;19522;45.656;11.302;2022-10-31T00:35:15;98553.72;;;11.36;82.74
33161;BME280;19522;45.656;11.302;2022-10-31T00:37:40;98971.41;;;13.77;83.24
33161;BME280;19522;45.656;11.302;2022-10-31T00:40:06;98974.50;;;13.74;83.38
33161;BME280;19522;45.656;11.302;2022-10-31T00:42:32;98963.00;;;13.78;82.59
33161;BME280;19522;45.656;11.302;2022-10-31T00:44:58;98966.97;;;13.97;82.16
33161;BME280;19522;45.656;11.302;2022-10-31T00:47:23;98960.72;;;13.82;82.89
33161;BME280;19522;45.656;11.302;2022-10-31T00:49:49;98972.19;;;13.70;83.67
33161;BME280;19522;45.656;11.302;2022-10-31T00:52:14;98968.34;;;13.65;83.87
33161;BME280;19522;45.656;11.302;2022-10-31T00:54:40;98967.78;;;13.48;84.10
33161;BME280;19522;45.656;11.302;2022-10-31T00:57:05;98770.13;;;12.42;84.34
33161;BME280;19522;45.656;11.302;2022-10-31T00:59:31;98963.97;;;13.92;83.10
33161;BME280;19522;45.656;11.302;2022-10-31T01:01:56;98983.34;;;13.97;82.14
33161;BME280;19522;45.656;11.302;2022-10-31T01:04:22;98962.25;;;13.91;81.66
33161;BME280;19522;45.656;11.302;2022-10-31T01:06:48;98969.19;;;13.87;81.38
33161;BME280;19522;45.656;11.302;2022-10-31T01:09:14;98953.72;;;13.73;82.23
33161;BME280;19522;45.656;11.302;2022-10-31T01:11:39;98724.66;;;12.21;82.29
33161;BME280;19522;45.656;11.302;2022-10-31T01:14:05;98951.84;;;13.73;82.67
33161;BME280;19522;45.656;11.302;2022-10-31T01:16:30;98950.75;;;13.67;82.96
33161;BME280;19522;45.656;11.302;2022-10-31T01:18:56;98940.22;;;13.43;84.01
33161;BME280;19522;45.656;11.302;2022-10-31T01:21:25;98940.09;;;13.51;84.26
33161;BME280;19522;45.656;11.302;2022-10-31T01:23:53;98937.09;;;13.46;84.59
33161;BME280;19522;45.656;11.302;2022-10-31T01:26:25;98948.66;;;13.69;83.29
33161;BME280;19522;45.656;11.302;2022-10-31T01:28:59;98951.19;;;13.71;82.86
33161;BME280;19522;45.656;11.302;2022-10-31T01:31:27;98948.19;;;13.66;83.31
33161;BME280;19522;45.656;11.302;2022-10-31T01:33:54;98910.41;;;13.41;83.85
33161;BME280;19522;45.656;11.302;2022-10-31T01:36:23;98946.06;;;13.61;83.99
33161;BME280;19522;45.656;11.302;2022-10-31T01:38:50;98912.78;;;13.29;83.32
33161;BME280;19522;45.656;11.302;2022-10-31T01:41:19;98688.94;;;11.94;82.80
33161;BME280;19522;45.656;11.302;2022-10-31T01:43:53;98939.84;;;13.46;84.11
33161;BME280;19522;45.656;11.302;2022-10-31T01:46:31;98925.13;;;13.25;84.31
33161;BME280;19522;45.656;11.302;2022-10-31T01:48:59;98939.63;;;13.47;83.99
33161;BME280;19522;45.656;11.302;2022-10-31T01:51:28;98938.22;;;13.51;83.19
33161;BME280;19522;45.656;11.302;2022-10-31T01:53:58;98755.78;;;12.48;82.67
33161;BME280;19522;45.656;11.302;2022-10-31T01:56:26;98942.25;;;13.55;82.72
33161;BME280;19522;45.656;11.302;2022-10-31T01:58:52;98859.03;;;13.01;82.02
33161;BME280;19522;45.656;11.302;2022-10-31T02:01:19;98931.47;;;13.32;83.63
33161;BME280;19522;45.656;11.302;2022-10-31T02:03:46;98686.63;;;11.76;84.20
33161;BME280;19522;45.656;11.302;2022-10-31T02:06:25;98850.28;;;12.69;84.64
33161;BME280;19522;45.656;11.302;2022-10-31T02:08:52;98882.38;;;12.89;84.39
33161;BME280;19522;45.656;11.302;2022-10-31T02:11:19;98788.66;;;12.31;84.48
33161;BME280;19522;45.656;11.302;2022-10-31T02:13:46;98833.53;;;12.51;84.51
33161;BME280;19522;45.656;11.302;2022-10-31T02:16:12;98663.59;;;11.57;83.94
33161;BME280;19522;45.656;11.302;2022-10-31T02:18:38;98939.03;;;13.30;83.65
33161;BME280;19522;45.656;11.302;2022-10-31T02:33:24;98917.63;;;13.49;80.97
33161;BME280;19522;45.656;11.302;2022-10-31T02:38:42;98916.91;;;13.40;80.93
33161;BME280;19522;45.656;11.302;2022-10-31T02:41:18;98923.22;;;13.40;81.50
33161;BME280;19522;45.656;11.302;2022-10-31T02:46:23;98841.16;;;12.99;81.11
33161;BME280;19522;45.656;11.302;2022-10-31T02:48:53;98929.03;;;13.37;82.46
33161;BME280;19522;45.656;11.302;2022-10-31T02:51:21;98925.03;;;13.18;83.20
33161;BME280;19522;45.656;11.302;2022-10-31T02:53:46;98922.34;;;13.03;83.32
33161;BME280;19522;45.656;11.302;2022-10-31T02:56:17;98891.41;;;12.74;83.33
33161;BME280;19522;45.656;11.302;2022-10-31T02:58:50;98922.47;;;12.95;83.76
33161;BME280;19522;45.656;11.302;2022-10-31T03:06:41;98912.13;;;13.27;81.37
33161;BME280;19522;45.656;11.302;2022-10-31T03:12:01;98920.06;;;13.22;81.01
33161;BME280;19522;45.656;11.302;2022-10-31T03:17:37;98917.41;;;13.07;82.28
33161;BME280;19522;45.656;11.302;2022-10-31T03:20:06;98913.88;;;13.13;81.53
33161;BME280;19522;45.656;11.302;2022-10-31T03:22:35;98912.41;;;13.11;82.13
33161;BME280;19522;45.656;11.302;2022-10-31T03:25:04;98833.88;;;12.62;82.01
33161;BME280;19522;45.656;11.302;2022-10-31T03:27:32;98836.47;;;12.49;82.64
33161;BME280;19522;45.656;11.302;2022-10-31T03:30:02;98917.19;;;13.08;82.27
33161;BME280;19522;45.656;11.302;2022-10-31T03:32:39;98923.69;;;13.07;82.38
33161;BME280;19522;45.656;11.302;2022-10-31T03:35:08;98923.91;;;12.91;83.16
33161;BME280;19522;45.656;11.302;2022-10-31T03:37:39;98630.06;;;10.89;84.35
33161;BME280;19522;45.656;11.302;2022-10-31T03:40:07;98691.00;;;11.25;84.39
33161;BME280;19522;45.656;11.302;2022-10-31T03:42:38;98930.13;;;12.85;83.98
33161;BME280;19522;45.656;11.302;2022-10-31T03:45:11;98906.78;;;12.97;81.89
33161;BME280;19522;45.656;11.302;2022-10-31T03:47:38;98912.13;;;13.05;81.54
33161;BME280;19522;45.656;11.302;2022-10-31T03:50:08;98755.97;;;11.95;81.88
33161;BME280;19522;45.656;11.302;2022-10-31T03:52:46;98920.94;;;13.07;81.51
33161;BME280;19522;45.656;11.302;2022-10-31T03:55:32;98807.06;;;12.44;81.04
33161;BME280;19522;45.656;11.302;2022-10-31T03:58:08;98925.81;;;13.12;81.10
33161;BME280;19522;45.656;11.302;2022-10-31T04:00:35;98925.25;;;13.17;80.85
33161;BME280;19522;45.656;11.302;2022-10-31T04:03:21;98755.97;;;11.95;81.80
33161;BME280;19522;45.656;11.302;2022-10-31T04:05:49;98760.66;;;12.01;81.58
33161;BME280;19522;45.656;11.302;2022-10-31T04:08:20;98915.25;;;13.02;81.99
33161;BME280;19522;45.656;11.302;2022-10-31T04:10:51;98750.06;;;11.91;82.02
33161;BME280;19522;45.656;11.302;2022-10-31T04:13:21;98693.41;;;11.50;81.94
33161;BME280;19522;45.656;11.302;2022-10-31T04:15:50;98742.94;;;11.60;82.69
33161;BME280;19522;45.656;11.302;2022-10-31T04:18:17;98937.16;;;12.94;82.55
33161;BME280;19522;45.656;11.302;2022-10-31T04:20:43;98924.84;;;12.98;82.08
33161;BME280;19522;45.656;11.302;2022-10-31T04:23:20;98935.41;;;12.86;81.75
33161;BME280;19522;45.656;11.302;2022-10-31T04:25:47;98931.56;;;12.81;82.62
33161;BME280;19522;45.656;11.302;2022-10-31T04:28:12;98935.28;;;12.94;81.73
33161;BME280;19522;45.656;11.302;2022-10-31T04:30:38;98933.00;;;12.98;81.47
33161;BME280;19522;45.656;11.302;2022-10-31T04:33:03;98941.03;;;12.85;82.33
33161;BME280;19522;45.656;11.302;2022-10-31T04:35:29;98938.41;;;12.76;82.41
33161;BME280;19522;45.656;11.302;2022-10-31T04:37:54;98940.94;;;12.93;81.88
33161;BME280;19522;45.656;11.302;2022-10-31T04:40:20;98933.75;;;13.07;81.14
33161;BME280;19522;45.656;11.302;2022-10-31T04:42:46;98932.31;;;13.11;80.90
33161;BME280;19522;45.656;11.302;2022-10-31T04:45:11;98939.88;;;12.94;81.80
33161;BME280;19522;45.656;11.302;2022-10-31T04:47:37;98861.56;;;12.29;82.20
33161;BME280;19522;45.656;11.302;2022-10-31T04:50:03;98915.25;;;12.51;82.63
33161;BME280;19522;45.656;11.302;2022-10-31T04:52:28;98921.72;;;12.50;82.81
33161;BME280;19522;45.656;11.302;2022-10-31T04:54:54;98945.28;;;12.72;82.84
33161;BME280;19522;45.656;11.302;2022-10-31T04:57:19;98836.47;;;12.34;81.34
33161;BME280;19522;45.656;11.302;2022-10-31T04:59:45;98936.44;;;12.85;81.46
33161;BME280;19522;45.656;11.302;2022-10-31T05:02:10;98937.94;;;12.73;82.18
33161;BME280;19522;45.656;11.302;2022-10-31T05:04:36;98942.22;;;12.97;81.00
33161;BME280;19522;45.656;11.302;2022-10-31T05:07:01;98941.69;;;12.87;81.43
33161;BME280;19522;45.656;11.302;2022-10-31T05:09:27;98663.81;;;11.10;82.18
33161;BME280;19522;45.656;11.302;2022-10-31T05:11:52;98684.81;;;11.46;80.96
33161;BME280;19522;45.656;11.302;2022-10-31T05:14:21;98944.09;;;13.12;80.43
33161;BME280;19522;45.656;11.302;2022-10-31T05:16:47;98940.94;;;13.15;79.99
33161;BME280;19522;45.656;11.302;2022-10-31T05:19:12;98654.13;;;11.22;80.25
33161;BME280;19522;45.656;11.302;2022-10-31T05:21:38;98939.72;;;12.81;81.42
33161;BME280;19522;45.656;11.302;2022-10-31T05:24:04;98943.19;;;12.74;81.80
33161;BME280;19522;45.656;11.302;2022-10-31T05:26:29;98943.66;;;12.93;80.75
33161;BME280;19522;45.656;11.302;2022-10-31T05:28:55;98812.59;;;11.99;81.62
33161;BME280;19522;45.656;11.302;2022-10-31T05:31:20;98943.38;;;12.88;80.78
33161;BME280;19522;45.656;11.302;2022-10-31T05:33:46;98938.22;;;12.93;80.72
33161;BME280;19522;45.656;11.302;2022-10-31T05:36:12;98938.66;;;12.97;81.34
33161;BME280;19522;45.656;11.302;2022-10-31T05:38:37;98942.13;;;12.90;81.43
33161;BME280;19522;45.656;11.302;2022-10-31T05:41:03;98945.19;;;12.81;81.84
33161;BME280;19522;45.656;11.302;2022-10-31T05:43:28;98950.84;;;12.64;82.64
33161;BME280;19522;45.656;11.302;2022-10-31T05:45:55;98818.00;;;11.69;83.49
33161;BME280;19522;45.656;11.302;2022-10-31T05:48:21;98940.13;;;12.47;82.97
33161;BME280;19522;45.656;11.302;2022-10-31T05:50:48;98948.38;;;12.69;82.04
33161;BME280;19522;45.656;11.302;2022-10-31T05:53:14;98933.06;;;12.68;82.22
33161;BME280;19522;45.656;11.302;2022-10-31T05:55:40;98939.38;;;12.84;81.51
33161;BME280;19522;45.656;11.302;2022-10-31T05:58:06;98946.88;;;12.82;81.33
33161;BME280;19522;45.656;11.302;2022-10-31T06:00:32;98967.66;;;12.68;82.03
33161;BME280;19522;45.656;11.302;2022-10-31T06:03:01;98952.34;;;12.52;82.49
33161;BME280;19522;45.656;11.302;2022-10-31T06:05:28;98954.16;;;12.44;82.74
33161;BME280;19522;45.656;11.302;2022-10-31T06:07:54;98954.06;;;12.53;82.40
33161;BME280;19522;45.656;11.302;2022-10-31T06:10:19;98956.38;;;12.56;82.54
33161;BME280;19522;45.656;11.302;2022-10-31T06:12:48;98948.41;;;12.54;82.13
33161;BME280;19522;45.656;11.302;2022-10-31T06:15:14;98949.97;;;12.78;81.06
33161;BME280;19522;45.656;11.302;2022-10-31T06:17:40;98947.59;;;12.90;80.62
33161;BME280;19522;45.656;11.302;2022-10-31T06:20:06;98920.88;;;12.64;81.15
33161;BME280;19522;45.656;11.302;2022-10-31T06:22:32;98828.78;;;11.93;81.64
33161;BME280;19522;45.656;11.302;2022-10-31T06:24:58;98950.19;;;12.77;81.42
33161;BME280;19522;45.656;11.302;2022-10-31T06:27:24;98953.63;;;12.86;80.38
33161;BME280;19522;45.656;11.302;2022-10-31T06:29:50;98956.47;;;12.77;81.58
33161;BME280;19522;45.656;11.302;2022-10-31T06:32:16;98963.03;;;12.83;81.69
33161;BME280;19522;45.656;11.302;2022-10-31T06:34:43;98964.53;;;12.86;81.55
33161;BME280;19522;45.656;11.302;2022-10-31T06:37:10;98970.38;;;12.83;81.44
33161;BME280;19522;45.656;11.302;2022-10-31T06:39:36;98971.31;;;12.60;82.50
33161;BME280;19522;45.656;11.302;2022-10-31T06:42:03;98974.16;;;12.52;83.17
33161;BME280;19522;45.656;11.302;2022-10-31T06:44:28;98974.72;;;12.32;83.98
33161;BME280;19522;45.656;11.302;2022-10-31T06:46:54;98977.13;;;12.57;83.18
33161;BME280;19522;45.656;11.302;2022-10-31T06:49:20;98975.84;;;12.68;82.74
33161;BME280;19522;45.656;11.302;2022-10-31T06:51:49;98978.00;;;12.57;82.84
33161;BME280;19522;45.656;11.302;2022-10-31T06:54:15;98978.25;;;12.62;82.97
33161;BME280;19522;45.656;11.302;2022-10-31T06:56:40;98980.91;;;12.56;83.29
33161;BME280;19522;45.656;11.302;2022-10-31T06:59:06;98981.09;;;12.69;82.81
33161;BME280;19522;45.656;11.302;2022-10-31T07:01:32;98921.91;;;12.63;81.60
33161;BME280;19522;45.656;11.302;2022-10-31T07:03:58;98980.75;;;12.94;81.66
33161;BME280;19522;45.656;11.302;2022-10-31T07:06:23;98983.38;;;13.17;80.84
33161;BME280;19522;45.656;11.302;2022-10-31T07:08:49;98978.44;;;13.28;80.38
33161;BME280;19522;45.656;11.302;2022-10-31T07:11:14;98985.78;;;13.27;80.88
33161;BME280;19522;45.656;11.302;2022-10-31T07:13:40;98989.28;;;13.21;81.66
33161;BME280;19522;45.656;11.302;2022-10-31T07:16:06;98987.19;;;13.23;82.10
33161;BME280;19522;45.656;11.302;2022-10-31T07:18:33;98985.13;;;13.25;82.32
33161;BME280;19522;45.656;11.302;2022-10-31T07:20:58;98981.72;;;13.23;82.06
33161;BME280;19522;45.656;11.302;2022-10-31T07:23:24;98987.13;;;13.38;81.56
33161;BME280;19522;45.656;11.302;2022-10-31T07:25:58;98856.53;;;12.63;80.96
33161;BME280;19522;45.656;11.302;2022-10-31T07:28:25;98998.31;;;13.58;81.85
33161;BME280;19522;45.656;11.302;2022-10-31T07:30:52;98999.66;;;13.69;82.56
33161;BME280;19522;45.656;11.302;2022-10-31T07:33:17;98995.13;;;13.54;82.54
33161;BME280;19522;45.656;11.302;2022-10-31T07:35:43;98997.00;;;13.54;82.79
33161;BME280;19522;45.656;11.302;2022-10-31T07:38:10;99002.31;;;13.62;82.96
33161;BME280;19522;45.656;11.302;2022-10-31T07:40:36;98924.72;;;13.28;82.51
33161;BME280;19522;45.656;11.302;2022-10-31T07:43:02;98876.66;;;13.05;82.53
33161;BME280;19522;45.656;11.302;2022-10-31T07:45:27;99005.88;;;14.06;81.75
33161;BME280;19522;45.656;11.302;2022-10-31T07:47:53;99006.47;;;14.30;80.73
33161;BME280;19522;45.656;11.302;2022-10-31T07:50:23;98998.41;;;14.50;78.75
33161;BME280;19522;45.656;11.302;2022-10-31T07:53:01;98999.34;;;14.64;78.33
33161;BME280;19522;45.656;11.302;2022-10-31T07:55:30;98894.22;;;13.90;78.73
33161;BME280;19522;45.656;11.302;2022-10-31T07:58:05;98915.75;;;14.06;78.93
33161;BME280;19522;45.656;11.302;2022-10-31T08:00:32;99008.00;;;14.68;79.09
33161;BME280;19522;45.656;11.302;2022-10-31T08:03:06;99007.03;;;14.82;78.41
33161;BME280;19522;45.656;11.302;2022-10-31T08:05:32;98908.47;;;14.20;77.94
33161;BME280;19522;45.656;11.302;2022-10-31T08:07:58;99008.22;;;15.08;77.75
33161;BME280;19522;45.656;11.302;2022-10-31T08:10:24;99011.41;;;15.18;77.15
33161;BME280;19522;45.656;11.302;2022-10-31T08:13:01;99005.38;;;15.36;75.94
33161;BME280;19522;45.656;11.302;2022-10-31T08:15:28;99007.50;;;15.54;74.75
33161;BME280;19522;45.656;11.302;2022-10-31T08:17:54;98994.28;;;15.71;73.63
33161;BME280;19522;45.656;11.302;2022-10-31T08:20:20;98808.91;;;14.71;73.34
33161;BME280;19522;45.656;11.302;2022-10-31T08:23:12;99008.25;;;16.10;72.92
33161;BME280;19522;45.656;11.302;2022-10-31T08:25:39;98857.38;;;15.24;72.15
33161;BME280;19522;45.656;11.302;2022-10-31T08:28:06;99005.91;;;16.47;71.74
33161;BME280;19522;45.656;11.302;2022-10-31T08:30:33;99008.41;;;16.62;71.09
33161;BME280;19522;45.656;11.302;2022-10-31T08:35:31;98999.22;;;17.02;70.52
33161;BME280;19522;45.656;11.302;2022-10-31T08:37:57;99001.66;;;17.31;67.96
33161;BME280;19522;45.656;11.302;2022-10-31T08:40:24;98991.94;;;17.67;66.74
33161;BME280;19522;45.656;11.302;2022-10-31T08:42:57;98959.13;;;17.72;67.56
33161;BME280;19522;45.656;11.302;2022-10-31T08:45:23;98949.31;;;18.15;66.62
33161;BME280;19522;45.656;11.302;2022-10-31T08:47:48;98995.69;;;18.92;65.37
33161;BME280;19522;45.656;11.302;2022-10-31T08:50:14;98986.53;;;19.48;64.13
33161;BME280;19522;45.656;11.302;2022-10-31T08:52:39;98957.66;;;19.81;61.22
33161;BME280;19522;45.656;11.302;2022-10-31T08:55:05;98989.50;;;20.54;58.16
33161;BME280;19522;45.656;11.302;2022-10-31T08:57:30;98944.75;;;20.64;56.96
33161;BME280;19522;45.656;11.302;2022-10-31T08:59:56;98992.84;;;21.33;55.42
33161;BME280;19522;45.656;11.302;2022-10-31T09:02:21;98986.13;;;21.70;53.69
33161;BME280;19522;45.656;11.302;2022-10-31T09:04:47;98993.19;;;21.94;52.15
33161;BME280;19522;45.656;11.302;2022-10-31T09:07:12;98770.59;;;20.90;50.73
33161;BME280;19522;45.656;11.302;2022-10-31T09:09:38;98962.00;;;22.33;50.66
33161;BME280;19522;45.656;11.302;2022-10-31T09:12:03;98943.66;;;22.44;49.89
33161;BME280;19522;45.656;11.302;2022-10-31T09:14:29;98980.09;;;22.97;47.82
33161;BME280;19522;45.656;11.302;2022-10-31T09:16:54;98927.59;;;22.63;46.92
33161;BME280;19522;45.656;11.302;2022-10-31T09:19:20;98990.50;;;23.29;46.34
33161;BME280;19522;45.656;11.302;2022-10-31T09:21:46;98988.69;;;23.68;44.34
33161;BME280;19522;45.656;11.302;2022-10-31T09:24:11;98990.59;;;24.22;43.65
33161;BME280;19522;45.656;11.302;2022-10-31T09:26:37;98983.38;;;24.64;43.02
33161;BME280;19522;45.656;11.302;2022-10-31T09:29:02;98859.84;;;24.13;42.51
33161;BME280;19522;45.656;11.302;2022-10-31T09:31:29;98988.53;;;25.46;42.08
33161;BME280;19522;45.656;11.302;2022-10-31T09:33:55;98984.31;;;25.33;42.42
33161;BME280;19522;45.656;11.302;2022-10-31T09:36:20;98975.25;;;26.00;40.53
33161;BME280;19522;45.656;11.302;2022-10-31T09:38:46;98980.31;;;26.28;39.32
33161;BME280;19522;45.656;11.302;2022-10-31T09:41:31;98952.50;;;26.23;39.29
33161;BME280;19522;45.656;11.302;2022-10-31T09:44:17;98983.63;;;26.62;38.33
33161;BME280;19522;45.656;11.302;2022-10-31T09:52:29;98979.97;;;26.71;39.26
33161;BME280;19522;45.656;11.302;2022-10-31T09:55:03;98821.19;;;25.85;39.17
33161;BME280;19522;45.656;11.302;2022-10-31T09:57:33;98976.38;;;27.42;37.52
33161;BME280;19522;45.656;11.302;2022-10-31T10:00:00;98852.66;;;26.82;37.50
33161;BME280;19522;45.656;11.302;2022-10-31T10:02:51;98967.31;;;27.65;37.77
33161;BME280;19522;45.656;11.302;2022-10-31T10:05:22;98867.88;;;27.00;36.49
33161;BME280;19522;45.656;11.302;2022-10-31T10:07:59;98968.69;;;27.73;37.08
33161;BME280;19522;45.656;11.302;2022-10-31T10:10:39;98967.06;;;27.06;37.58
33161;BME280;19522;45.656;11.302;2022-10-31T10:16:07;98968.22;;;26.95;39.12
33161;BME280;19522;45.656;11.302;2022-10-31T10:21:51;98963.66;;;27.25;38.07
33161;BME280;19522;45.656;11.302;2022-10-31T10:27:30;98962.50;;;26.24;37.53
33161;BME280;19522;45.656;11.302;2022-10-31T10:30:18;98958.25;;;25.65;39.38
33161;BME280;19522;45.656;11.302;2022-10-31T10:32:49;98961.50;;;25.31;41.36
33161;BME280;19522;45.656;11.302;2022-10-31T10:35:24;98960.50;;;25.73;40.93
33161;BME280;19522;45.656;11.302;2022-10-31T10:37:55;98933.06;;;25.08;41.45
33161;BME280;19522;45.656;11.302;2022-10-31T10:40:27;98909.81;;;25.25;42.63
33161;BME280;19522;45.656;11.302;2022-10-31T10:45:53;98963.44;;;24.67;43.69
33161;BME280;19522;45.656;11.302;2022-10-31T10:48:49;98875.53;;;24.35;42.52
33161;BME280;19522;45.656;11.302;2022-10-31T10:51:23;98962.72;;;24.44;44.52
33161;BME280;19522;45.656;11.302;2022-10-31T10:56:53;98954.06;;;25.47;41.30
33161;BME280;19522;45.656;11.302;2022-10-31T10:59:22;98944.41;;;26.11;41.51
33161;BME280;19522;45.656;11.302;2022-10-31T11:01:50;98921.31;;;26.06;41.90
33161;BME280;19522;45.656;11.302;2022-10-31T11:04:31;98945.53;;;26.16;40.74
33161;BME280;19522;45.656;11.302;2022-10-31T11:07:09;98938.81;;;25.96;41.88
33161;BME280;19522;45.656;11.302;2022-10-31T11:09:36;98935.50;;;25.99;41.87
33161;BME280;19522;45.656;11.302;2022-10-31T11:12:28;98899.88;;;25.49;42.77
33161;BME280;19522;45.656;11.302;2022-10-31T11:15:06;98909.88;;;25.66;43.01
33161;BME280;19522;45.656;11.302;2022-10-31T11:17:33;98925.50;;;26.13;42.13
33161;BME280;19522;45.656;11.302;2022-10-31T11:22:42;98924.09;;;25.85;40.41
33161;BME280;19522;45.656;11.302;2022-10-31T11:25:24;98915.72;;;25.70;41.54
33161;BME280;19522;45.656;11.302;2022-10-31T11:28:18;98921.88;;;25.87;41.29
33161;BME280;19522;45.656;11.302;2022-10-31T11:30:47;98923.03;;;24.92;42.53
33161;BME280;19522;45.656;11.302;2022-10-31T11:33:18;98884.00;;;24.66;42.55
33161;BME280;19522;45.656;11.302;2022-10-31T11:35:44;98911.38;;;24.95;43.69
33161;BME280;19522;45.656;11.302;2022-10-31T11:38:16;98922.88;;;25.34;43.28
33161;BME280;19522;45.656;11.302;2022-10-31T11:40:57;98882.53;;;25.11;43.32
33161;BME280;19522;45.656;11.302;2022-10-31T11:43:23;98913.66;;;25.18;44.43
33161;BME280;19522;45.656;11.302;2022-10-31T11:45:49;98914.88;;;25.43;43.48
33161;BME280;19522;45.656;11.302;2022-10-31T11:48:21;98914.91;;;25.90;43.77
33161;BME280;19522;45.656;11.302;2022-10-31T11:50:54;98864.81;;;26.16;41.90
33161;BME280;19522;45.656;11.302;2022-10-31T11:53:33;98875.41;;;26.13;41.68
33161;BME280;19522;45.656;11.302;2022-10-31T11:56:12;98894.31;;;26.06;42.49
33161;BME280;19522;45.656;11.302;2022-10-31T11:58:38;98908.75;;;26.50;43.29
33161;BME280;19522;45.656;11.302;2022-10-31T12:01:04;98887.31;;;26.40;40.49
33161;BME280;19522;45.656;11.302;2022-10-31T12:04:01;98889.53;;;26.48;40.86
33161;BME280;19522;45.656;11.302;2022-10-31T12:06:32;98887.84;;;27.18;40.73
33161;BME280;19522;45.656;11.302;2022-10-31T12:09:00;98814.84;;;26.60;39.01
33161;BME280;19522;45.656;11.302;2022-10-31T12:11:37;98877.34;;;26.99;40.30
33161;BME280;19522;45.656;11.302;2022-10-31T12:14:45;98891.31;;;26.94;40.83
33161;BME280;19522;45.656;11.302;2022-10-31T12:17:16;98880.25;;;26.73;39.46
33161;BME280;19522;45.656;11.302;2022-10-31T12:22:42;98839.78;;;26.16;38.64
33161;BME280;19522;45.656;11.302;2022-10-31T12:28:14;98876.97;;;27.21;38.99
33161;BME280;19522;45.656;11.302;2022-10-31T12:33:47;98768.22;;;27.27;39.18
33161;BME280;19522;45.656;11.302;2022-10-31T12:36:39;98875.75;;;27.78;38.88
33161;BME280;19522;45.656;11.302;2022-10-31T12:58:56;98828.88;;;27.80;39.29
33161;BME280;19522;45.656;11.302;2022-10-31T13:01:33;98853.44;;;28.61;37.96
33161;BME280;19522;45.656;11.302;2022-10-31T13:04:11;98856.81;;;28.58;38.85
33161;BME280;19522;45.656;11.302;2022-10-31T13:06:48;98849.13;;;27.56;40.41
33161;BME280;19522;45.656;11.302;2022-10-31T13:09:25;98831.47;;;27.31;40.11
33161;BME280;19522;45.656;11.302;2022-10-31T13:11:59;98839.97;;;27.11;40.85
33161;BME280;19522;45.656;11.302;2022-10-31T13:16:55;98837.16;;;27.16;40.07
33161;BME280;19522;45.656;11.302;2022-10-31T13:19:36;98839.16;;;27.50;40.21
33161;BME280;19522;45.656;11.302;2022-10-31T13:25:50;98833.72;;;27.98;38.50
33161;BME280;19522;45.656;11.302;2022-10-31T13:27:56;98830.88;;;28.04;38.20
33161;BME280;19522;45.656;11.302;2022-10-31T13:30:28;98822.06;;;27.22;39.24
33161;BME280;19522;45.656;11.302;2022-10-31T13:43:39;98836.53;;;26.79;42.05
33161;BME280;19522;45.656;11.302;2022-10-31T13:46:38;98834.59;;;26.64;42.29
33161;BME280;19522;45.656;11.302;2022-10-31T13:49:04;98830.97;;;26.69;41.93
33161;BME280;19522;45.656;11.302;2022-10-31T13:51:46;98831.97;;;26.28;42.98
33161;BME280;19522;45.656;11.302;2022-10-31T13:54:21;98835.63;;;25.92;43.88
33161;BME280;19522;45.656;11.302;2022-10-31T13:56:49;98809.25;;;25.59;43.30
33161;BME280;19522;45.656;11.302;2022-10-31T13:59:22;98841.75;;;25.74;43.94
33161;BME280;19522;45.656;11.302;2022-10-31T14:01:59;98838.72;;;25.60;44.25
33161;BME280;19522;45.656;11.302;2022-10-31T14:07:14;98802.53;;;25.18;45.34
33161;BME280;19522;45.656;11.302;2022-10-31T14:14:56;98809.19;;;25.95;45.31
33161;BME280;19522;45.656;11.302;2022-10-31T14:17:27;98811.16;;;25.27;45.57
33161;BME280;19522;45.656;11.302;2022-10-31T14:22:49;98834.28;;;25.43;46.00
33161;BME280;19522;45.656;11.302;2022-10-31T14:25:33;98791.13;;;25.30;46.03
33161;BME280;19522;45.656;11.302;2022-10-31T14:28:01;98826.47;;;25.61;45.90
33161;BME280;19522;45.656;11.302;2022-10-31T14:30:28;98805.06;;;25.56;45.90
33161;BME280;19522;45.656;11.302;2022-10-31T14:33:01;98761.69;;;25.29;45.49
33161;BME280;19522;45.656;11.302;2022-10-31T14:35:37;98828.97;;;25.83;45.36
33161;BME280;19522;45.656;11.302;2022-10-31T14:38:16;98830.34;;;25.86;45.43
33161;BME280;19522;45.656;11.302;2022-10-31T14:40:55;98827.31;;;25.46;45.48
33161;BME280;19522;45.656;11.302;2022-10-31T14:46:56;98829.25;;;25.61;44.83
33161;BME280;19522;45.656;11.302;2022-10-31T14:52:08;98833.44;;;25.53;46.25
33161;BME280;19522;45.656;11.302;2022-10-31T14:54:43;98818.09;;;25.19;47.71
33161;BME280;19522;45.656;11.302;2022-10-31T14:57:31;98781.41;;;25.02;47.23
33161;BME280;19522;45.656;11.302;2022-10-31T15:00:02;98825.84;;;25.12;48.17